Terminal Aerodrome Forecast
Issued by NWS Louisville, KY

Home | Current Version | Previous Version | Text Only | Print | Product List | Glossary On
Versions: 1 2 3 4 5 6 7 8 9 10 11 12 13 14 15 16 17 18
000
FTUS43 KLMK 252300
TAFBWG
TAF
KBWG 252321Z 2600/2624 27005KT P6SM SKC
     FM260800 00000KT 4SM BR SCT002
      TEMPO 2609/2613 1/2SM FG BKN002
     FM261430 VRB03KT P6SM SKC=

USA.gov is the U.S. government's official web portal to all federal, state and local government web resources and services.